x

Southern Lake Huron (45149) Wave Buoy

5:00pm - Sun 30th Aug 2015 All times are CDT. -5 hours from GMT.

  • Sig Wave height 0.3ft
  • Peak Period 4s
  • Wind
    2mph, 4mph gusts
  • Air Temp 71°f
  • Sea Pressure 1016.1mb
  • Southern Lake Huron
  • Southern Lake Huron

More Historic Weather Station data

Upgrade to MSW Pro to gain access to the past 30 days of data for over 8000 Wavebouys and Weather Stations around the globe.

Join Pro

Comparision Forecast

View Surf forecast
   
Sun 08/30 5:00pm 0.3ft 4s 2 4 mph 1016.1mb 71f
4:00pm 0.3ft 4s 4 7 mph 1016.3mb 71f
3:00pm 0.3ft 2s 4
mph
1016.8mb 71f
2:00pm 0.3ft 2s 4 7 mph 1017.4mb 70f
1:00pm 0.3ft 2s 4
mph
1017.7mb 69f
12:00pm 0.3ft 15s 7
mph
1018.3mb 69f
11:00am 0.7ft 2s 4 7 mph 1018.8mb 68f
10:00am 0.7ft 2s 7 9 mph 1018.8mb 67f
9:00am 0.7ft 2s 7 9 mph 1018.8mb 67f
8:00am 0.7ft 2s 7
mph
1018.6mb 67f
7:00am 0.7ft 2s 11 13 mph 1018.3mb 67f
6:00am 0.3ft 2s 7
mph
1018.3mb 67f
5:00am 0.3ft 2s 9
mph
1017.5mb 67f
4:00am 0.7ft 15s 7 9 mph 1017.5mb 67f
3:00am 0.7ft 2s 7
mph
1017.4mb 67f
2:00am 0.7ft 14s 9
mph
1017.6mb 67f
1:00am 0.3ft 15s 9 11 mph 1017.9mb 67f
12:00am 0.3ft 4s 9 11 mph 1018.3mb 67f
Sat 08/29 11:00pm 0.3ft 4s 7
mph
1018.7mb 68f
10:00pm 0.3ft 2s 4
mph
1018.8mb 68f
9:00pm 0.3ft 3s 2
mph
1018.9mb 68f
8:00pm 0.3ft 3s 2
mph
1018.4mb 68f
7:00pm 0.3ft 3s 4
mph
1018mb 68f
6:00pm 0.3ft 3s 4
mph
1018.3mb 68f
5:00pm 0.3ft 3s 7
mph
1018.4mb 68f
4:00pm 0.3ft 3s 7 9 mph 1018.8mb 68f
3:00pm 0.7ft 4s 2 4 mph 1019.4mb 68f
2:00pm 0.7ft 15s 4
mph
1019.7mb 68f
1:00pm 0.7ft 3s 9 11 mph 1019.9mb 68f
12:00pm 0.7ft 3s 9 11 mph 1020.3mb 67f
11:00am 1ft 3s 7
mph
1021.2mb 67f
10:00am 1ft 3s 4 7 mph 1021.3mb 67f
9:00am 1ft 3s 9 11 mph 1020.8mb 67f
8:00am 1.3ft 3s 11 13 mph 1020.6mb 66f
7:00am 1.3ft 3s 11 13 mph 1020.9mb 67f
6:00am 1.6ft 4s 13 18 mph 1020.8mb 66f
5:00am 1.6ft 4s 13 18 mph 1020.2mb 67f
4:00am 2ft 4s 11 13 mph 1020.1mb 67f
3:00am 2ft 3s 13 16 mph 1019.9mb 67f
2:00am 2ft 3s 13 16 mph 1020.2mb 67f
1:00am 1.6ft 3s 13 18 mph 1020.3mb 67f
12:00am 1.6ft 3s 16 18 mph 1020.6mb 67f
Fri 08/28 11:00pm 1.3ft 3s 13 16 mph 1020.5mb 68f
9:00pm 0.7ft 15s 11 13 mph 1020.5mb 69f
8:00pm 0.7ft 2s 9 11 mph 1020.3mb 68f
7:00pm 0.3ft 15s 9 11 mph 1020.2mb 68f
6:00pm 0.3ft 2s 9
mph
1020.3mb 68f
5:00pm 0.3ft 2s 7 9 mph 1020.8mb 68f
4:00pm 0.7ft 2s 7 9 mph 1021.1mb 68f
3:00pm 0.7ft 2s 9
mph
1021.5mb 67f
2:00pm 0.7ft 2s 9 11 mph 1022.1mb 66f
1:00pm 0.7ft 2s 9 11 mph 1022.4mb 65f
12:00pm 0.7ft 2s 9 11 mph 1023.3mb 64f
11:00am 1ft 3s 9 11 mph 1023.3mb 64f
10:00am 0.7ft 2s 9 13 mph 1023.3mb 63f
9:00am 0.7ft 2s 7 9 mph 1023.2mb 64f
8:00am 1ft 2s 9
mph
1022.9mb 64f
7:00am 1ft 2s 7 9 mph 1023mb 63f
6:00am 1ft 2s 9 11 mph 1022.8mb 63f
5:00am 1ft 2s 13 16 mph 1022.3mb 63f
4:00am 0.7ft 15s 11 13 mph 1021.6mb 63f
3:00am 0.7ft 4s 9 11 mph 1021.4mb 64f
2:00am 0.7ft 5s 7 9 mph 1021.1mb 64f
1:00am 0.7ft 4s 7 9 mph 1021.5mb 64f
12:00am 0.7ft 4s 7 9 mph 1021.6mb 64f
Thu 08/27 11:00pm 0.7ft 4s 4 7 mph 1021.9mb 64f
10:00pm 1ft 4s 4 9 mph 1022.4mb 63f
9:00pm 1ft 4s 4 7 mph 1022.2mb 63f
8:00pm 1ft 4s 2 4 mph 1021.8mb 62f
7:00pm 1.3ft 4s 2 4 mph 1021.6mb 62f
6:00pm 1.3ft 4s 9 11 mph 1022.1mb 62f
5:00pm 1.6ft 4s 9
mph
1022mb 62f
4:00pm 1.6ft 4s 7 9 mph 1021.8mb 62f
3:00pm 2ft 5s 7 11 mph 1021.4mb 62f
2:00pm 2ft 5s 9 11 mph 1021.7mb 61f
1:00pm 2.5ft 4s 11 13 mph 1022.3mb 61f
12:00pm 2.5ft 5s 13 18 mph 1022.5mb 62f
11:00am  -   -  13
mph
1022.8mb 61f
10:00am 2.5ft 5s 13 18 mph 1022.4mb 61f
9:00am 2.5ft 6s 13 18 mph 1022.1mb 61f
8:00am 2.5ft 6s 13 16 mph 1021.7mb 61f
6:00am  -   -  16
mph
- 61f
5:00am 3ft 6s 16 18 mph 1020.4mb 60f
4:00am  -   -  13
mph
- 60f
3:00am 3ft 6s 13 18 mph 1020.1mb 60f
2:00am 3ft 4s 13 16 mph 1020mb 59f
1:00am 3ft 4s 18 22 mph 1019.7mb 62f
12:00am 2.5ft 4s 13 18 mph 1020mb 61f